sensor_id;sensor_type;location;lat;lon;timestamp;pressure;altitude;pressure_sealevel;temperature;humidity
66668;BME280;57205;51.438;-2.006;2023-01-27T00:00:04;102522.59;;;3.99;100.00
66668;BME280;57205;51.438;-2.006;2023-01-27T00:02:30;102519.97;;;3.91;100.00
66668;BME280;57205;51.438;-2.006;2023-01-27T00:04:56;102511.56;;;3.87;100.00
66668;BME280;57205;51.438;-2.006;2023-01-27T00:07:21;102512.72;;;3.85;100.00
66668;BME280;57205;51.438;-2.006;2023-01-27T00:09:46;102514.06;;;3.81;100.00
66668;BME280;57205;51.438;-2.006;2023-01-27T00:12:21;102525.19;;;3.76;100.00
66668;BME280;57205;51.438;-2.006;2023-01-27T00:15:06;102522.75;;;3.67;100.00
66668;BME280;57205;51.438;-2.006;2023-01-27T00:17:32;102511.13;;;3.68;100.00
66668;BME280;57205;51.438;-2.006;2023-01-27T00:19:57;102511.03;;;3.61;100.00
66668;BME280;57205;51.438;-2.006;2023-01-27T00:22:23;102502.25;;;3.61;100.00
66668;BME280;57205;51.438;-2.006;2023-01-27T00:25:06;102499.31;;;3.56;100.00
66668;BME280;57205;51.438;-2.006;2023-01-27T00:27:32;102504.59;;;3.56;100.00
66668;BME280;57205;51.438;-2.006;2023-01-27T00:29:57;102495.81;;;3.55;100.00
66668;BME280;57205;51.438;-2.006;2023-01-27T00:32:22;102497.00;;;3.53;100.00
66668;BME280;57205;51.438;-2.006;2023-01-27T00:35:06;102486.94;;;3.48;100.00
66668;BME280;57205;51.438;-2.006;2023-01-27T00:37:32;102491.75;;;3.45;100.00
66668;BME280;57205;51.438;-2.006;2023-01-27T00:39:57;102482.97;;;3.44;100.00
66668;BME280;57205;51.438;-2.006;2023-01-27T00:42:23;102477.38;;;3.39;100.00
66668;BME280;57205;51.438;-2.006;2023-01-27T00:44:48;102478.53;;;3.37;100.00
66668;BME280;57205;51.438;-2.006;2023-01-27T00:47:32;102479.72;;;3.34;100.00
66668;BME280;57205;51.438;-2.006;2023-01-27T00:49:58;102482.88;;;3.30;100.00
66668;BME280;57205;51.438;-2.006;2023-01-27T00:52:24;102487.69;;;3.26;100.00
66668;BME280;57205;51.438;-2.006;2023-01-27T00:54:49;102476.63;;;3.23;100.00
66668;BME280;57205;51.438;-2.006;2023-01-27T00:57:14;102476.94;;;3.20;100.00
66668;BME280;57205;51.438;-2.006;2023-01-27T00:59:40;102470.19;;;3.17;100.00
66668;BME280;57205;51.438;-2.006;2023-01-27T01:02:05;102475.00;;;3.14;100.00
66668;BME280;57205;51.438;-2.006;2023-01-27T01:04:30;102468.38;;;3.10;100.00
66668;BME280;57205;51.438;-2.006;2023-01-27T01:06:56;102473.69;;;3.02;100.00
66668;BME280;57205;51.438;-2.006;2023-01-27T01:09:21;102472.91;;;2.93;100.00
66668;BME280;57205;51.438;-2.006;2023-01-27T01:11:46;102472.06;;;2.84;100.00
66668;BME280;57205;51.438;-2.006;2023-01-27T01:14:12;102467.78;;;2.75;100.00
66668;BME280;57205;51.438;-2.006;2023-01-27T01:16:37;102475.59;;;2.69;100.00
66668;BME280;57205;51.438;-2.006;2023-01-27T01:19:02;102479.38;;;2.58;100.00
66668;BME280;57205;51.438;-2.006;2023-01-27T01:21:28;102471.13;;;2.53;100.00
66668;BME280;57205;51.438;-2.006;2023-01-27T01:23:53;102476.41;;;2.45;100.00
66668;BME280;57205;51.438;-2.006;2023-01-27T01:26:18;102479.06;;;2.37;100.00
66668;BME280;57205;51.438;-2.006;2023-01-27T01:28:44;102471.63;;;2.33;100.00
66668;BME280;57205;51.438;-2.006;2023-01-27T01:31:11;102471.47;;;2.26;100.00
66668;BME280;57205;51.438;-2.006;2023-01-27T01:33:36;102476.06;;;2.16;100.00
66668;BME280;57205;51.438;-2.006;2023-01-27T01:36:12;102466.16;;;2.10;100.00
66668;BME280;57205;51.438;-2.006;2023-01-27T01:38:38;102458.25;;;2.02;100.00
66668;BME280;57205;51.438;-2.006;2023-01-27T01:41:03;102453.94;;;1.93;100.00
66668;BME280;57205;51.438;-2.006;2023-01-27T01:43:29;102451.94;;;1.87;100.00
66668;BME280;57205;51.438;-2.006;2023-01-27T01:45:55;102449.78;;;1.82;100.00
66668;BME280;57205;51.438;-2.006;2023-01-27T01:48:22;102451.94;;;1.79;100.00
66668;BME280;57205;51.438;-2.006;2023-01-27T01:51:38;102452.56;;;1.73;100.00
66668;BME280;57205;51.438;-2.006;2023-01-27T01:53:39;102441.00;;;1.66;100.00
66668;BME280;57205;51.438;-2.006;2023-01-27T01:56:07;102443.31;;;1.61;100.00
66668;BME280;57205;51.438;-2.006;2023-01-27T01:58:34;102440.34;;;1.56;100.00
66668;BME280;57205;51.438;-2.006;2023-01-27T02:01:01;102445.41;;;1.49;100.00
66668;BME280;57205;51.438;-2.006;2023-01-27T02:03:27;102438.97;;;1.44;100.00
66668;BME280;57205;51.438;-2.006;2023-01-27T02:05:53;102440.28;;;1.40;100.00
66668;BME280;57205;51.438;-2.006;2023-01-27T02:08:20;102444.06;;;1.37;100.00
66668;BME280;57205;51.438;-2.006;2023-01-27T02:10:47;102447.16;;;1.33;100.00
66668;BME280;57205;51.438;-2.006;2023-01-27T02:13:12;102443.19;;;1.29;100.00
66668;BME280;57205;51.438;-2.006;2023-01-27T02:15:38;102447.13;;;1.25;100.00
66668;BME280;57205;51.438;-2.006;2023-01-27T02:18:03;102442.19;;;1.22;100.00
66668;BME280;57205;51.438;-2.006;2023-01-27T02:20:40;102442.50;;;1.19;100.00
66668;BME280;57205;51.438;-2.006;2023-01-27T02:28:28;102443.13;;;1.13;100.00
66668;BME280;57205;51.438;-2.006;2023-01-27T02:30:54;102455.97;;;1.08;100.00
66668;BME280;57205;51.438;-2.006;2023-01-27T02:33:19;102457.09;;;1.05;100.00
66668;BME280;57205;51.438;-2.006;2023-01-27T02:38:10;102463.50;;;1.02;100.00
66668;BME280;57205;51.438;-2.006;2023-01-27T02:40:36;102467.44;;;0.98;100.00
66668;BME280;57205;51.438;-2.006;2023-01-27T02:43:03;102461.81;;;0.93;100.00
66668;BME280;57205;51.438;-2.006;2023-01-27T02:45:29;102463.94;;;0.90;100.00
66668;BME280;57205;51.438;-2.006;2023-01-27T02:47:54;102453.72;;;0.87;100.00
66668;BME280;57205;51.438;-2.006;2023-01-27T02:50:19;102449.56;;;0.84;100.00
66668;BME280;57205;51.438;-2.006;2023-01-27T02:52:44;102449.91;;;0.81;100.00
66668;BME280;57205;51.438;-2.006;2023-01-27T02:55:10;102448.91;;;0.82;100.00
66668;BME280;57205;51.438;-2.006;2023-01-27T02:57:35;102445.59;;;0.80;100.00
66668;BME280;57205;51.438;-2.006;2023-01-27T03:00:00;102441.31;;;0.79;100.00
66668;BME280;57205;51.438;-2.006;2023-01-27T03:02:26;102440.31;;;0.80;100.00
66668;BME280;57205;51.438;-2.006;2023-01-27T03:04:55;102427.31;;;0.79;100.00
66668;BME280;57205;51.438;-2.006;2023-01-27T03:07:20;102427.16;;;0.80;100.00
66668;BME280;57205;51.438;-2.006;2023-01-27T03:09:46;102426.84;;;0.83;100.00
66668;BME280;57205;51.438;-2.006;2023-01-27T03:12:11;102435.09;;;0.88;100.00
66668;BME280;57205;51.438;-2.006;2023-01-27T03:14:49;102433.66;;;0.94;100.00
66668;BME280;57205;51.438;-2.006;2023-01-27T03:17:33;102434.31;;;0.96;100.00
66668;BME280;57205;51.438;-2.006;2023-01-27T03:20:17;102423.94;;;0.94;100.00
66668;BME280;57205;51.438;-2.006;2023-01-27T03:22:42;102419.34;;;0.96;100.00
66668;BME280;57205;51.438;-2.006;2023-01-27T03:25:08;102421.16;;;0.96;100.00
66668;BME280;57205;51.438;-2.006;2023-01-27T03:27:33;102427.25;;;0.96;100.00
66668;BME280;57205;51.438;-2.006;2023-01-27T03:29:59;102424.13;;;1.01;100.00
66668;BME280;57205;51.438;-2.006;2023-01-27T03:32:25;102421.50;;;1.01;100.00
66668;BME280;57205;51.438;-2.006;2023-01-27T03:34:51;102424.13;;;1.01;100.00
66668;BME280;57205;51.438;-2.006;2023-01-27T03:37:17;102422.16;;;1.03;100.00
66668;BME280;57205;51.438;-2.006;2023-01-27T03:40:01;102419.38;;;1.05;100.00
66668;BME280;57205;51.438;-2.006;2023-01-27T03:42:44;102425.97;;;1.09;100.00
66668;BME280;57205;51.438;-2.006;2023-01-27T03:45:28;102418.75;;;1.11;100.00
66668;BME280;57205;51.438;-2.006;2023-01-27T03:48:12;102412.84;;;1.17;100.00
66668;BME280;57205;51.438;-2.006;2023-01-27T03:50:38;102413.53;;;1.19;100.00
66668;BME280;57205;51.438;-2.006;2023-01-27T03:53:07;102418.97;;;1.25;100.00
66668;BME280;57205;51.438;-2.006;2023-01-27T03:55:33;102419.84;;;1.34;100.00
66668;BME280;57205;51.438;-2.006;2023-01-27T03:57:59;102422.31;;;1.35;100.00
66668;BME280;57205;51.438;-2.006;2023-01-27T04:00:43;102419.84;;;1.34;100.00
66668;BME280;57205;51.438;-2.006;2023-01-27T04:03:09;102420.81;;;1.33;100.00
66668;BME280;57205;51.438;-2.006;2023-01-27T04:05:53;102415.53;;;1.33;100.00
66668;BME280;57205;51.438;-2.006;2023-01-27T04:08:37;102412.56;;;1.36;100.00
66668;BME280;57205;51.438;-2.006;2023-01-27T04:11:03;102410.59;;;1.38;100.00
66668;BME280;57205;51.438;-2.006;2023-01-27T04:13:47;102413.72;;;1.41;100.00
66668;BME280;57205;51.438;-2.006;2023-01-27T04:16:12;102404.53;;;1.45;100.00
66668;BME280;57205;51.438;-2.006;2023-01-27T04:18:37;102411.63;;;1.45;100.00
66668;BME280;57205;51.438;-2.006;2023-01-27T04:21:03;102419.53;;;1.53;100.00
66668;BME280;57205;51.438;-2.006;2023-01-27T04:23:28;102405.38;;;1.54;100.00
66668;BME280;57205;51.438;-2.006;2023-01-27T04:25:53;102406.06;;;1.56;100.00
66668;BME280;57205;51.438;-2.006;2023-01-27T04:28:20;102411.00;;;1.59;100.00
66668;BME280;57205;51.438;-2.006;2023-01-27T04:30:46;102406.38;;;1.61;100.00
66668;BME280;57205;51.438;-2.006;2023-01-27T04:33:11;102411.31;;;1.64;100.00
66668;BME280;57205;51.438;-2.006;2023-01-27T04:35:41;102400.47;;;1.67;100.00
66668;BME280;57205;51.438;-2.006;2023-01-27T04:38:07;102401.13;;;1.69;100.00
66668;BME280;57205;51.438;-2.006;2023-01-27T04:40:32;102406.06;;;1.72;100.00
66668;BME280;57205;51.438;-2.006;2023-01-27T04:42:57;102400.16;;;1.78;100.00
66668;BME280;57205;51.438;-2.006;2023-01-27T04:45:23;102402.78;;;1.78;100.00
66668;BME280;57205;51.438;-2.006;2023-01-27T04:47:48;102394.53;;;1.81;100.00
66668;BME280;57205;51.438;-2.006;2023-01-27T04:50:13;102389.91;;;1.83;100.00
66668;BME280;57205;51.438;-2.006;2023-01-27T04:52:38;102396.53;;;1.87;100.00
66668;BME280;57205;51.438;-2.006;2023-01-27T04:55:04;102394.56;;;1.89;100.00
66668;BME280;57205;51.438;-2.006;2023-01-27T04:57:29;102399.66;;;1.90;100.00
66668;BME280;57205;51.438;-2.006;2023-01-27T04:59:54;102402.97;;;1.92;100.00
66668;BME280;57205;51.438;-2.006;2023-01-27T05:02:19;102401.16;;;1.93;100.00
66668;BME280;57205;51.438;-2.006;2023-01-27T05:04:45;102400.81;;;1.96;100.00
66668;BME280;57205;51.438;-2.006;2023-01-27T05:07:10;102400.81;;;1.96;100.00
66668;BME280;57205;51.438;-2.006;2023-01-27T05:09:35;102405.75;;;1.99;100.00
66668;BME280;57205;51.438;-2.006;2023-01-27T05:12:00;102414.34;;;2.01;100.00
66668;BME280;57205;51.438;-2.006;2023-01-27T05:14:26;102415.00;;;2.03;100.00
66668;BME280;57205;51.438;-2.006;2023-01-27T05:16:51;102410.38;;;2.05;100.00
66668;BME280;57205;51.438;-2.006;2023-01-27T05:19:16;102416.16;;;2.09;100.00
66668;BME280;57205;51.438;-2.006;2023-01-27T05:21:42;102414.69;;;2.14;100.00
66668;BME280;57205;51.438;-2.006;2023-01-27T05:24:08;102414.38;;;2.17;100.00
66668;BME280;57205;51.438;-2.006;2023-01-27T05:26:34;102406.75;;;2.22;100.00
66668;BME280;57205;51.438;-2.006;2023-01-27T05:28:59;102407.44;;;2.24;100.00
66668;BME280;57205;51.438;-2.006;2023-01-27T05:31:28;102403.63;;;2.27;100.00
66668;BME280;57205;51.438;-2.006;2023-01-27T05:33:56;102409.41;;;2.30;100.00
66668;BME280;57205;51.438;-2.006;2023-01-27T05:36:22;102410.69;;;2.34;100.00
66668;BME280;57205;51.438;-2.006;2023-01-27T05:38:48;102408.59;;;2.38;100.00
66668;BME280;57205;51.438;-2.006;2023-01-27T05:41:14;102409.72;;;2.43;100.00
66668;BME280;57205;51.438;-2.006;2023-01-27T05:43:40;102421.59;;;2.47;100.00
66668;BME280;57205;51.438;-2.006;2023-01-27T05:48:32;102419.28;;;2.52;100.00
66668;BME280;57205;51.438;-2.006;2023-01-27T05:50:57;102424.22;;;2.55;100.00
66668;BME280;57205;51.438;-2.006;2023-01-27T05:53:23;102411.03;;;2.55;100.00
66668;BME280;57205;51.438;-2.006;2023-01-27T05:55:49;102405.56;;;2.57;100.00
66668;BME280;57205;51.438;-2.006;2023-01-27T05:58:14;102411.50;;;2.59;100.00
66668;BME280;57205;51.438;-2.006;2023-01-27T06:00:39;102414.97;;;2.59;100.00
66668;BME280;57205;51.438;-2.006;2023-01-27T06:03:04;102414.47;;;2.64;100.00
66668;BME280;57205;51.438;-2.006;2023-01-27T06:05:29;102408.53;;;2.62;100.00
66668;BME280;57205;51.438;-2.006;2023-01-27T06:07:55;102412.16;;;2.61;100.00
66668;BME280;57205;51.438;-2.006;2023-01-27T06:10:20;102409.69;;;2.59;100.00
66668;BME280;57205;51.438;-2.006;2023-01-27T06:12:45;102410.03;;;2.56;100.00
66668;BME280;57205;51.438;-2.006;2023-01-27T06:15:10;102408.38;;;2.55;100.00
66668;BME280;57205;51.438;-2.006;2023-01-27T06:17:36;102416.47;;;2.54;100.00
66668;BME280;57205;51.438;-2.006;2023-01-27T06:20:01;102415.47;;;2.55;100.00
66668;BME280;57205;51.438;-2.006;2023-01-27T06:22:26;102417.31;;;2.54;100.00
66668;BME280;57205;51.438;-2.006;2023-01-27T06:24:51;102408.56;;;2.54;100.00
66668;BME280;57205;51.438;-2.006;2023-01-27T06:27:17;102409.22;;;2.56;100.00
66668;BME280;57205;51.438;-2.006;2023-01-27T06:29:42;102407.53;;;2.55;100.00
66668;BME280;57205;51.438;-2.006;2023-01-27T06:32:07;102412.03;;;2.54;100.00
66668;BME280;57205;51.438;-2.006;2023-01-27T06:34:32;102414.81;;;2.53;100.00
66668;BME280;57205;51.438;-2.006;2023-01-27T06:36:58;102422.91;;;2.51;100.00
66668;BME280;57205;51.438;-2.006;2023-01-27T06:39:23;102416.00;;;2.50;100.00
66668;BME280;57205;51.438;-2.006;2023-01-27T06:41:48;102407.88;;;2.52;100.00
66668;BME280;57205;51.438;-2.006;2023-01-27T06:44:14;102409.03;;;2.57;100.00
66668;BME280;57205;51.438;-2.006;2023-01-27T06:46:40;102413.00;;;2.61;100.00
66668;BME280;57205;51.438;-2.006;2023-01-27T06:49:05;102419.75;;;2.64;100.00
66668;BME280;57205;51.438;-2.006;2023-01-27T06:51:30;102414.81;;;2.69;100.00
66668;BME280;57205;51.438;-2.006;2023-01-27T06:53:56;102416.25;;;2.71;100.00
66668;BME280;57205;51.438;-2.006;2023-01-27T06:56:21;102423.34;;;2.79;100.00
66668;BME280;57205;51.438;-2.006;2023-01-27T06:58:46;102424.00;;;2.81;100.00
66668;BME280;57205;51.438;-2.006;2023-01-27T07:01:11;102430.13;;;2.81;100.00
66668;BME280;57205;51.438;-2.006;2023-01-27T07:03:37;102426.47;;;2.82;100.00
66668;BME280;57205;51.438;-2.006;2023-01-27T07:06:02;102426.63;;;2.89;100.00
66668;BME280;57205;51.438;-2.006;2023-01-27T07:08:27;102417.38;;;2.93;100.00
66668;BME280;57205;51.438;-2.006;2023-01-27T07:10:53;102427.13;;;2.92;100.00
66668;BME280;57205;51.438;-2.006;2023-01-27T07:13:18;102429.28;;;2.89;100.00
66668;BME280;57205;51.438;-2.006;2023-01-27T07:15:43;102432.75;;;2.89;100.00
66668;BME280;57205;51.438;-2.006;2023-01-27T07:18:11;102427.94;;;2.93;100.00
66668;BME280;57205;51.438;-2.006;2023-01-27T07:20:38;102432.06;;;2.95;100.00
66668;BME280;57205;51.438;-2.006;2023-01-27T07:23:04;102430.41;;;2.94;100.00
66668;BME280;57205;51.438;-2.006;2023-01-27T07:25:30;102431.25;;;2.95;100.00
66668;BME280;57205;51.438;-2.006;2023-01-27T07:27:56;102431.25;;;2.95;100.00
66668;BME280;57205;51.438;-2.006;2023-01-27T07:30:22;102424.47;;;2.92;100.00
66668;BME280;57205;51.438;-2.006;2023-01-27T07:32:48;102427.13;;;2.92;100.00
66668;BME280;57205;51.438;-2.006;2023-01-27T07:35:14;102422.84;;;2.91;100.00
66668;BME280;57205;51.438;-2.006;2023-01-27T07:37:41;102428.13;;;2.91;100.00
66668;BME280;57205;51.438;-2.006;2023-01-27T07:40:07;102428.94;;;2.92;100.00
66668;BME280;57205;51.438;-2.006;2023-01-27T07:42:32;102429.28;;;2.97;100.00
66668;BME280;57205;51.438;-2.006;2023-01-27T07:44:57;102427.59;;;2.96;100.00
66668;BME280;57205;51.438;-2.006;2023-01-27T07:47:23;102427.59;;;2.96;100.00
66668;BME280;57205;51.438;-2.006;2023-01-27T07:49:48;102433.72;;;2.96;100.00
66668;BME280;57205;51.438;-2.006;2023-01-27T07:52:13;102425.78;;;2.96;100.00
66668;BME280;57205;51.438;-2.006;2023-01-27T07:54:39;102441.13;;;3.01;100.00
66668;BME280;57205;51.438;-2.006;2023-01-27T07:57:04;102427.75;;;3.03;100.00
66668;BME280;57205;51.438;-2.006;2023-01-27T07:59:30;102429.03;;;3.07;100.00
66668;BME280;57205;51.438;-2.006;2023-01-27T08:01:55;102431.53;;;3.08;100.00
66668;BME280;57205;51.438;-2.006;2023-01-27T08:04:20;102436.66;;;3.10;100.00
66668;BME280;57205;51.438;-2.006;2023-01-27T08:06:45;102427.06;;;3.09;100.00
66668;BME280;57205;51.438;-2.006;2023-01-27T08:09:11;102430.34;;;3.11;100.00
66668;BME280;57205;51.438;-2.006;2023-01-27T08:11:36;102437.31;;;3.12;100.00
66668;BME280;57205;51.438;-2.006;2023-01-27T08:14:01;102439.59;;;3.15;100.00
66668;BME280;57205;51.438;-2.006;2023-01-27T08:16:27;102446.56;;;3.16;100.00
66668;BME280;57205;51.438;-2.006;2023-01-27T08:18:52;102454.31;;;3.17;100.00
66668;BME280;57205;51.438;-2.006;2023-01-27T08:21:18;102444.41;;;3.19;100.00
66668;BME280;57205;51.438;-2.006;2023-01-27T08:23:43;102461.72;;;3.22;100.00
66668;BME280;57205;51.438;-2.006;2023-01-27T08:26:08;102453.66;;;3.23;100.00
66668;BME280;57205;51.438;-2.006;2023-01-27T08:28:34;102449.16;;;3.24;100.00
66668;BME280;57205;51.438;-2.006;2023-01-27T08:31:07;102454.13;;;3.27;100.00
66668;BME280;57205;51.438;-2.006;2023-01-27T08:33:33;102459.41;;;3.27;100.00
66668;BME280;57205;51.438;-2.006;2023-01-27T08:36:02;102461.88;;;3.28;100.00
66668;BME280;57205;51.438;-2.006;2023-01-27T08:38:28;102469.63;;;3.30;100.00
66668;BME280;57205;51.438;-2.006;2023-01-27T08:40:53;102468.66;;;3.31;100.00
66668;BME280;57205;51.438;-2.006;2023-01-27T08:43:18;102463.84;;;3.34;100.00
66668;BME280;57205;51.438;-2.006;2023-01-27T08:45:44;102471.25;;;3.39;100.00
66668;BME280;57205;51.438;-2.006;2023-01-27T08:48:11;102476.38;;;3.40;100.00
66668;BME280;57205;51.438;-2.006;2023-01-27T08:50:36;102484.31;;;3.40;100.00
66668;BME280;57205;51.438;-2.006;2023-01-27T08:53:01;102480.50;;;3.43;100.00
66668;BME280;57205;51.438;-2.006;2023-01-27T08:55:28;102477.50;;;3.46;100.00
66668;BME280;57205;51.438;-2.006;2023-01-27T08:57:54;102478.34;;;3.46;100.00
66668;BME280;57205;51.438;-2.006;2023-01-27T09:00:20;102476.81;;;3.52;100.00
66668;BME280;57205;51.438;-2.006;2023-01-27T09:02:45;102490.06;;;3.52;100.00
66668;BME280;57205;51.438;-2.006;2023-01-27T09:05:11;102492.69;;;3.52;100.00
66668;BME280;57205;51.438;-2.006;2023-01-27T09:07:36;102483.78;;;3.53;100.00
66668;BME280;57205;51.438;-2.006;2023-01-27T09:10:02;102481.59;;;3.56;100.00
66668;BME280;57205;51.438;-2.006;2023-01-27T09:12:28;102486.53;;;3.59;100.00
66668;BME280;57205;51.438;-2.006;2023-01-27T09:14:53;102489.19;;;3.59;100.00
66668;BME280;57205;51.438;-2.006;2023-01-27T09:17:18;102497.97;;;3.60;100.00
66668;BME280;57205;51.438;-2.006;2023-01-27T09:19:45;102494.97;;;3.63;100.00
66668;BME280;57205;51.438;-2.006;2023-01-27T09:22:10;102492.97;;;3.65;100.00
66668;BME280;57205;51.438;-2.006;2023-01-27T09:24:35;102493.81;;;3.65;100.00
66668;BME280;57205;51.438;-2.006;2023-01-27T09:27:01;102500.22;;;3.71;100.00
66668;BME280;57205;51.438;-2.006;2023-01-27T09:29:26;102491.75;;;3.75;100.00
66668;BME280;57205;51.438;-2.006;2023-01-27T09:31:51;102498.88;;;3.75;100.00
66668;BME280;57205;51.438;-2.006;2023-01-27T09:34:16;102495.22;;;3.76;100.00
66668;BME280;57205;51.438;-2.006;2023-01-27T09:36:45;102502.66;;;3.80;100.00
66668;BME280;57205;51.438;-2.006;2023-01-27T09:39:11;102494.19;;;3.85;100.00
66668;BME280;57205;51.438;-2.006;2023-01-27T09:59:01;102514.94;;;4.04;100.00
66668;BME280;57205;51.438;-2.006;2023-01-27T10:01:33;102526.66;;;4.10;100.00
66668;BME280;57205;51.438;-2.006;2023-01-27T10:04:27;102523.63;;;4.13;100.00
66668;BME280;57205;51.438;-2.006;2023-01-27T10:07:09;102523.31;;;4.16;100.00
66668;BME280;57205;51.438;-2.006;2023-01-27T10:09:50;102536.00;;;4.20;100.00
66668;BME280;57205;51.438;-2.006;2023-01-27T10:14:47;102525.19;;;4.30;100.00
66668;BME280;57205;51.438;-2.006;2023-01-27T10:17:22;102528.97;;;4.35;100.00
66668;BME280;57205;51.438;-2.006;2023-01-27T10:19:57;102530.63;;;4.36;100.00
66668;BME280;57205;51.438;-2.006;2023-01-27T10:27:22;102527.75;;;4.46;100.00
66668;BME280;57205;51.438;-2.006;2023-01-27T10:29:57;102533.16;;;4.52;100.00
66668;BME280;57205;51.438;-2.006;2023-01-27T10:35:11;102521.47;;;4.61;100.00
66668;BME280;57205;51.438;-2.006;2023-01-27T10:37:53;102514.81;;;4.65;100.00
66668;BME280;57205;51.438;-2.006;2023-01-27T10:46:03;102517.03;;;4.76;100.00
66668;BME280;57205;51.438;-2.006;2023-01-27T10:51:12;102521.34;;;4.77;100.00
66668;BME280;57205;51.438;-2.006;2023-01-27T10:53:46;102522.34;;;4.76;100.00
66668;BME280;57205;51.438;-2.006;2023-01-27T11:01:04;102514.66;;;4.81;100.00
66668;BME280;57205;51.438;-2.006;2023-01-27T11:03:33;102519.25;;;4.87;100.00
66668;BME280;57205;51.438;-2.006;2023-01-27T11:06:01;102522.28;;;4.84;100.00
66668;BME280;57205;51.438;-2.006;2023-01-27T11:08:30;102514.78;;;4.88;100.00
66668;BME280;57205;51.438;-2.006;2023-01-27T11:10:57;102512.78;;;4.90;100.00
66668;BME280;57205;51.438;-2.006;2023-01-27T11:13:43;102508.13;;;4.92;100.00
66668;BME280;57205;51.438;-2.006;2023-01-27T11:16:15;102516.16;;;4.98;100.00
66668;BME280;57205;51.438;-2.006;2023-01-27T11:18:41;102513.31;;;5.00;100.00
66668;BME280;57205;51.438;-2.006;2023-01-27T11:21:11;102512.59;;;5.06;100.00
66668;BME280;57205;51.438;-2.006;2023-01-27T11:23:41;102505.81;;;5.04;100.00
66668;BME280;57205;51.438;-2.006;2023-01-27T11:28:53;102508.41;;;5.12;100.00
66668;BME280;57205;51.438;-2.006;2023-01-27T11:37:18;102493.56;;;5.17;100.00
66668;BME280;57205;51.438;-2.006;2023-01-27T11:39:44;102498.06;;;5.17;100.00
66668;BME280;57205;51.438;-2.006;2023-01-27T11:42:10;102486.06;;;5.21;100.00
66668;BME280;57205;51.438;-2.006;2023-01-27T11:44:36;102488.38;;;5.24;100.00
66668;BME280;57205;51.438;-2.006;2023-01-27T11:47:02;102482.31;;;5.30;100.00
66668;BME280;57205;51.438;-2.006;2023-01-27T11:49:30;102480.69;;;5.29;100.00
66668;BME280;57205;51.438;-2.006;2023-01-27T11:52:05;102476.91;;;5.38;100.00
66668;BME280;57205;51.438;-2.006;2023-01-27T11:54:41;102462.28;;;5.42;100.00
66668;BME280;57205;51.438;-2.006;2023-01-27T11:57:17;102467.84;;;5.47;100.00
66668;BME280;57205;51.438;-2.006;2023-01-27T11:59:42;102466.28;;;5.52;100.00
66668;BME280;57205;51.438;-2.006;2023-01-27T12:04:51;102458.66;;;5.64;100.00
66668;BME280;57205;51.438;-2.006;2023-01-27T12:09:53;102453.59;;;5.83;100.00
66668;BME280;57205;51.438;-2.006;2023-01-27T12:12:20;102443.44;;;5.87;100.00
66668;BME280;57205;51.438;-2.006;2023-01-27T12:14:53;102437.97;;;5.95;100.00
66668;BME280;57205;51.438;-2.006;2023-01-27T12:17:37;102430.44;;;5.99;100.00
66668;BME280;57205;51.438;-2.006;2023-01-27T12:20:05;102441.53;;;6.02;100.00
66668;BME280;57205;51.438;-2.006;2023-01-27T12:22:37;102438.31;;;6.07;100.00
66668;BME280;57205;51.438;-2.006;2023-01-27T12:25:05;102429.59;;;6.13;100.00
66668;BME280;57205;51.438;-2.006;2023-01-27T12:27:35;102437.81;;;6.18;100.00
66668;BME280;57205;51.438;-2.006;2023-01-27T12:30:04;102431.50;;;6.19;100.00
66668;BME280;57205;51.438;-2.006;2023-01-27T12:32:33;102420.94;;;6.32;99.82
66668;BME280;57205;51.438;-2.006;2023-01-27T12:34:59;102423.16;;;6.28;97.17
66668;BME280;57205;51.438;-2.006;2023-01-27T12:37:26;102424.66;;;6.37;98.46
66668;BME280;57205;51.438;-2.006;2023-01-27T12:39:54;102423.53;;;6.46;98.21
66668;BME280;57205;51.438;-2.006;2023-01-27T12:42:45;102424.31;;;6.40;98.02
66668;BME280;57205;51.438;-2.006;2023-01-27T12:45:27;102420.44;;;6.43;98.91
66668;BME280;57205;51.438;-2.006;2023-01-27T12:50:29;102410.69;;;6.29;96.66
66668;BME280;57205;51.438;-2.006;2023-01-27T12:53:07;102416.84;;;6.29;97.23
66668;BME280;57205;51.438;-2.006;2023-01-27T12:55:35;102410.28;;;6.25;99.30
66668;BME280;57205;51.438;-2.006;2023-01-27T12:58:00;102411.72;;;6.28;98.01
66668;BME280;57205;51.438;-2.006;2023-01-27T13:00:26;102405.59;;;6.27;97.57
66668;BME280;57205;51.438;-2.006;2023-01-27T13:02:51;102410.13;;;6.33;98.03
66668;BME280;57205;51.438;-2.006;2023-01-27T13:05:24;102401.34;;;6.33;97.04
66668;BME280;57205;51.438;-2.006;2023-01-27T13:07:50;102404.44;;;6.36;97.61
66668;BME280;57205;51.438;-2.006;2023-01-27T13:10:23;102399.31;;;6.35;97.93
66668;BME280;57205;51.438;-2.006;2023-01-27T13:12:50;102392.34;;;6.34;97.52
66668;BME280;57205;51.438;-2.006;2023-01-27T13:15:22;102397.59;;;6.27;95.95
66668;BME280;57205;51.438;-2.006;2023-01-27T13:17:52;102390.91;;;6.31;94.64
66668;BME280;57205;51.438;-2.006;2023-01-27T13:20:23;102384.13;;;6.29;94.40
66668;BME280;57205;51.438;-2.006;2023-01-27T13:22:53;102385.19;;;6.34;95.52
66668;BME280;57205;51.438;-2.006;2023-01-27T13:25:22;102383.50;;;6.27;93.80
66668;BME280;57205;51.438;-2.006;2023-01-27T13:27:48;102383.34;;;6.35;92.80
66668;BME280;57205;51.438;-2.006;2023-01-27T13:32:48;102391.91;;;6.30;93.57
66668;BME280;57205;51.438;-2.006;2023-01-27T13:35:23;102391.78;;;6.38;92.84
66668;BME280;57205;51.438;-2.006;2023-01-27T13:37:51;102396.69;;;6.41;91.99
66668;BME280;57205;51.438;-2.006;2023-01-27T13:40:33;102390.72;;;6.39;90.47
66668;BME280;57205;51.438;-2.006;2023-01-27T13:45:34;102396.69;;;6.41;89.16
66668;BME280;57205;51.438;-2.006;2023-01-27T13:48:17;102390.31;;;6.36;89.97
66668;BME280;57205;51.438;-2.006;2023-01-27T13:50:51;102391.97;;;6.37;89.28
66668;BME280;57205;51.438;-2.006;2023-01-27T13:53:19;102389.66;;;6.34;89.54
66668;BME280;57205;51.438;-2.006;2023-01-27T13:56:03;102388.59;;;6.28;90.44